createdAt,value
2019-01-19T00:00:22.989Z,94.37
2019-01-19T00:01:23.158Z,94.74
2019-01-19T00:02:23.331Z,94.93
2019-01-19T00:03:23.495Z,94.37
2019-01-19T00:04:23.667Z,94.37
2019-01-19T00:05:23.856Z,94.79
2019-01-19T00:06:24.028Z,94.89
2019-01-19T00:07:24.193Z,94.84
2019-01-19T00:08:24.360Z,94.89
2019-01-19T00:09:24.530Z,95.59
2019-01-19T00:10:24.695Z,94.79
2019-01-19T00:11:24.866Z,94.89
2019-01-19T00:12:25.034Z,95.54
2019-01-19T00:13:25.199Z,95.26
2019-01-19T00:14:25.364Z,95.45
2019-01-19T00:15:25.539Z,95.45
2019-01-19T00:16:25.703Z,95.26
2019-01-19T00:17:25.867Z,95.36
2019-01-19T00:18:26.035Z,95.36
2019-01-19T00:19:26.201Z,95.26
2019-01-19T00:20:26.370Z,95.54
2019-01-19T00:21:26.549Z,95.54
2019-01-19T00:22:26.717Z,96.20
2019-01-19T00:23:26.895Z,96.01
2019-01-19T00:24:27.048Z,95.83
2019-01-19T00:25:27.228Z,96.30
2019-01-19T00:26:27.387Z,96.68
2019-01-19T00:27:27.542Z,96.39
2019-01-19T00:28:27.710Z,96.68
2019-01-19T00:29:27.881Z,96.58
2019-01-19T00:30:28.051Z,96.20
2019-01-19T00:31:28.214Z,96.58
2019-01-19T00:33:28.549Z,95.83
2019-01-19T00:34:34.039Z,96.68
2019-01-19T00:35:28.882Z,96.49
2019-01-19T00:36:29.098Z,96.39
2019-01-19T00:37:29.215Z,96.68
2019-01-19T00:38:29.385Z,96.58
2019-01-19T00:39:29.553Z,96.39
2019-01-19T00:40:29.720Z,96.39
2019-01-19T00:41:29.888Z,95.83
2019-01-19T00:42:30.053Z,95.83
2019-01-19T00:43:30.211Z,95.36
2019-01-19T00:44:30.385Z,95.36
2019-01-19T00:45:30.559Z,95.26
2019-01-19T00:46:30.729Z,95.73
2019-01-19T00:47:30.906Z,95.64
2019-01-19T00:48:31.076Z,96.01
2019-01-19T00:49:31.248Z,96.01
2019-01-19T00:50:31.415Z,96.30
2019-01-19T00:51:31.583Z,96.49
2019-01-19T00:52:31.749Z,96.49
2019-01-19T00:53:31.931Z,96.58
2019-01-19T00:54:32.079Z,96.58
2019-01-19T00:55:32.246Z,96.20
2019-01-19T00:56:32.417Z,97.15
2019-01-19T00:57:32.582Z,97.05
2019-01-19T00:58:32.751Z,96.20
2019-01-19T00:59:32.921Z,96.77
2019-01-19T01:00:33.085Z,96.30
2019-01-19T01:01:33.255Z,96.58
2019-01-19T01:02:33.424Z,96.49
2019-01-19T01:03:33.592Z,96.39
2019-01-19T01:04:33.760Z,96.86
2019-01-19T01:05:33.931Z,97.05
2019-01-19T01:06:34.095Z,97.34
2019-01-19T01:07:34.271Z,97.05
2019-01-19T01:08:34.427Z,96.96
2019-01-19T01:09:34.592Z,97.34
2019-01-19T01:10:34.792Z,97.34
2019-01-19T01:11:34.934Z,97.34
2019-01-19T01:12:35.087Z,97.15
2019-01-19T01:13:35.265Z,97.15
2019-01-19T01:14:35.432Z,97.24
2019-01-19T01:15:35.600Z,96.96
2019-01-19T01:16:35.773Z,96.49
2019-01-19T01:17:35.932Z,96.30
2019-01-19T01:18:36.096Z,96.77
2019-01-19T01:19:36.262Z,96.86
2019-01-19T01:20:36.433Z,97.05
2019-01-19T01:21:36.599Z,96.86
2019-01-19T01:22:36.772Z,96.39
2019-01-19T01:23:36.944Z,96.49
2019-01-19T01:24:37.105Z,96.68
2019-01-19T01:25:37.266Z,96.30
2019-01-19T01:26:37.443Z,96.49
2019-01-19T01:27:37.603Z,96.30
2019-01-19T01:28:37.762Z,96.58
2019-01-19T01:29:37.918Z,96.39
2019-01-19T01:30:38.097Z,96.49
2019-01-19T01:31:38.252Z,96.58
2019-01-19T01:32:38.420Z,96.58
2019-01-19T01:33:38.589Z,96.49
2019-01-19T01:34:38.763Z,96.49
2019-01-19T01:35:38.919Z,96.01
2019-01-19T01:36:39.099Z,95.64
2019-01-19T01:37:39.231Z,95.54
2019-01-19T01:38:39.408Z,95.26
2019-01-19T01:39:39.585Z,95.45
2019-01-19T01:40:39.742Z,95.64
2019-01-19T01:41:39.909Z,95.45
2019-01-19T01:42:40.079Z,95.64
2019-01-19T01:43:40.264Z,96.39
2019-01-19T01:44:40.417Z,96.39
2019-01-19T01:45:40.581Z,95.54
2019-01-19T01:46:40.759Z,95.92
2019-01-19T01:47:40.927Z,95.36
2019-01-19T01:48:41.097Z,95.36
2019-01-19T01:49:41.263Z,95.64
2019-01-19T01:50:41.439Z,95.64
2019-01-19T01:51:41.596Z,96.11
2019-01-19T01:52:41.763Z,95.64
2019-01-19T01:53:41.925Z,95.73
2019-01-19T01:54:42.100Z,95.73
2019-01-19T01:55:42.268Z,95.83
2019-01-19T01:56:42.435Z,95.26
2019-01-19T01:57:42.609Z,95.45
2019-01-19T01:58:42.769Z,95.17
2019-01-19T01:59:42.930Z,94.60
2019-01-19T02:00:43.104Z,94.89
2019-01-19T02:01:43.271Z,94.79
2019-01-19T02:02:43.444Z,94.60
2019-01-19T02:03:43.609Z,94.70
2019-01-19T02:04:43.782Z,95.26
2019-01-19T02:05:43.944Z,95.45
2019-01-19T02:06:44.115Z,95.36
2019-01-19T02:07:44.281Z,95.36
2019-01-19T02:08:44.452Z,95.45
2019-01-19T02:09:44.622Z,95.26
2019-01-19T02:10:44.789Z,95.83
2019-01-19T02:11:44.968Z,96.11
2019-01-19T02:12:45.118Z,96.30
2019-01-19T02:13:45.287Z,96.49
2019-01-19T02:14:45.469Z,96.49
2019-01-19T02:15:45.621Z,96.58
2019-01-19T02:16:45.788Z,96.30
2019-01-19T02:17:45.948Z,95.92
2019-01-19T02:18:46.118Z,95.73
2019-01-19T02:19:46.280Z,95.92
2019-01-19T02:20:46.464Z,95.73
2019-01-19T02:21:46.614Z,96.01
2019-01-19T02:22:46.779Z,96.68
2019-01-19T02:23:46.952Z,96.77
2019-01-19T02:24:47.108Z,96.49
2019-01-19T02:25:47.284Z,96.49
2019-01-19T02:26:47.448Z,96.49
2019-01-19T02:27:47.660Z,96.49
2019-01-19T02:28:47.784Z,96.30
2019-01-19T02:29:47.952Z,96.49
2019-01-19T02:30:48.122Z,96.39
2019-01-19T02:31:48.280Z,96.68
2019-01-19T02:32:48.453Z,96.68
2019-01-19T02:33:48.621Z,96.20
2019-01-19T02:34:48.795Z,96.39
2019-01-19T02:35:48.957Z,96.39
2019-01-19T02:36:49.130Z,96.49
2019-01-19T02:37:49.279Z,96.39
2019-01-19T02:38:49.453Z,96.86
2019-01-19T02:39:49.639Z,97.15
2019-01-19T02:40:49.788Z,96.86
2019-01-19T02:41:49.958Z,97.05
2019-01-19T02:42:50.116Z,96.96
2019-01-19T02:43:50.281Z,97.15
2019-01-19T02:44:50.452Z,96.68
2019-01-19T02:45:50.616Z,96.49
2019-01-19T02:46:50.783Z,96.49
2019-01-19T02:47:50.987Z,95.54
2019-01-19T02:48:51.189Z,96.20
2019-01-19T02:49:51.294Z,95.64
2019-01-19T02:50:51.456Z,96.58
2019-01-19T02:51:51.628Z,96.49
2019-01-19T02:52:51.793Z,96.39
2019-01-19T02:53:51.972Z,96.49
2019-01-19T02:54:52.133Z,97.05
2019-01-19T02:55:52.300Z,96.77
2019-01-19T02:56:52.469Z,97.34
2019-01-19T02:57:52.648Z,97.34
2019-01-19T02:58:52.803Z,97.43
2019-01-19T02:59:52.966Z,97.53
2019-01-19T03:00:53.146Z,98.00
2019-01-19T03:01:53.306Z,97.62
2019-01-19T03:02:53.477Z,96.96
2019-01-19T03:03:53.653Z,97.62
2019-01-19T03:04:53.823Z,98.00
2019-01-19T03:05:56.220Z,98.10
2019-01-19T03:06:54.154Z,98.00
2019-01-19T03:07:54.312Z,98.57
2019-01-19T03:08:54.485Z,98.57
2019-01-19T03:09:54.661Z,99.04
2019-01-19T03:10:54.823Z,98.99
2019-01-19T03:11:54.992Z,99.32
2019-01-19T03:12:55.158Z,99.46
2019-01-19T03:13:55.327Z,99.27
2019-01-19T03:14:55.502Z,99.84
2019-01-19T03:15:55.659Z,99.98
2019-01-19T03:16:55.826Z,99.88
2019-01-19T03:17:55.998Z,99.99
2019-01-19T03:18:56.166Z,99.98
2019-01-19T03:19:56.339Z,99.99
2019-01-19T03:20:56.504Z,99.99
2019-01-19T03:21:56.665Z,99.79
2019-01-19T03:22:56.836Z,99.99
2019-01-19T03:23:57.002Z,99.99
2019-01-19T03:24:57.169Z,99.99
2019-01-19T03:25:57.344Z,99.99
2019-01-19T03:26:57.502Z,99.99
2019-01-19T03:28:57.849Z,99.99
2019-01-19T03:29:58.007Z,99.99
2019-01-19T03:30:58.197Z,99.99
2019-01-19T03:31:58.419Z,99.79
2019-01-19T03:32:58.584Z,99.99
2019-01-19T03:33:58.742Z,99.60
2019-01-19T03:34:58.904Z,99.55
2019-01-19T03:36:04.290Z,99.88
2019-01-19T03:36:59.237Z,99.51
2019-01-19T03:37:59.403Z,99.99
2019-01-19T03:38:59.574Z,99.99
2019-01-19T03:39:59.740Z,99.88
2019-01-19T03:40:59.906Z,99.88
2019-01-19T03:42:00.079Z,99.51
2019-01-19T03:43:00.260Z,99.22
2019-01-19T03:44:00.410Z,99.13
2019-01-19T03:45:00.576Z,99.32
2019-01-19T03:46:00.745Z,99.13
2019-01-19T03:47:00.901Z,99.32
2019-01-19T03:48:01.079Z,99.32
2019-01-19T03:49:01.246Z,98.85
2019-01-19T03:50:01.445Z,99.04
2019-01-19T03:51:01.579Z,99.04
2019-01-19T03:52:01.742Z,99.04
2019-01-19T03:53:01.918Z,98.75
2019-01-19T03:54:02.090Z,98.38
2019-01-19T03:55:02.252Z,98.28
2019-01-19T03:56:02.425Z,98.57
2019-01-19T03:57:02.594Z,98.75
2019-01-19T03:58:02.751Z,98.38
2019-01-19T03:59:02.917Z,98.10
2019-01-19T04:00:03.100Z,98.10
2019-01-19T04:01:03.263Z,98.38
2019-01-19T04:02:03.427Z,98.47
2019-01-19T04:03:03.595Z,98.28
2019-01-19T04:04:03.778Z,98.00
2019-01-19T04:05:03.925Z,98.19
2019-01-19T04:06:04.092Z,97.62
2019-01-19T04:07:04.270Z,97.53
2019-01-19T04:08:04.428Z,97.15
2019-01-19T04:09:04.595Z,97.43
2019-01-19T04:10:04.785Z,97.91
2019-01-19T04:11:04.932Z,97.81
2019-01-19T04:12:05.096Z,97.85
2019-01-19T04:13:05.264Z,98.33
2019-01-19T04:14:05.433Z,99.27
2019-01-19T04:15:05.594Z,99.84
2019-01-19T04:16:05.781Z,99.99
2019-01-19T04:17:05.919Z,99.99
2019-01-19T04:18:06.089Z,99.99
2019-01-19T04:19:07.139Z,99.99
2019-01-19T04:20:06.415Z,99.99
2019-01-19T04:21:06.576Z,99.99
2019-01-19T04:22:06.753Z,99.99
2019-01-19T04:23:06.915Z,99.88
2019-01-19T04:24:07.082Z,99.32
2019-01-19T04:25:07.245Z,99.51
2019-01-19T04:26:07.416Z,99.98
2019-01-19T04:27:07.586Z,99.79
2019-01-19T04:28:07.746Z,99.70
2019-01-19T04:29:07.917Z,99.60
2019-01-19T04:30:08.084Z,99.41
2019-01-19T04:31:08.258Z,99.70
2019-01-19T04:32:08.415Z,99.84
2019-01-19T04:33:08.598Z,99.27
2019-01-19T04:34:08.752Z,99.99
2019-01-19T04:35:08.920Z,99.99
2019-01-19T04:36:09.070Z,99.99
2019-01-19T04:37:09.257Z,99.99
2019-01-19T04:38:09.401Z,99.99
2019-01-19T04:39:09.576Z,99.99
2019-01-19T04:40:09.747Z,99.99
2019-01-19T04:41:09.916Z,99.55
2019-01-19T04:42:10.082Z,99.55
2019-01-19T04:43:10.252Z,98.52
2019-01-19T04:44:10.411Z,98.23
2019-01-19T04:45:10.614Z,97.67
2019-01-19T04:46:10.749Z,97.38
2019-01-19T04:47:10.914Z,97.29
2019-01-19T04:48:11.088Z,96.77
2019-01-19T04:49:11.261Z,96.72
2019-01-19T04:50:11.416Z,97.00
2019-01-19T04:51:11.588Z,97.15
2019-01-19T04:52:11.753Z,97.57
2019-01-19T04:53:11.926Z,97.72
2019-01-19T04:54:12.092Z,97.15
2019-01-19T04:55:12.261Z,97.34
2019-01-19T04:56:12.431Z,97.34
2019-01-19T04:57:12.592Z,97.15
2019-01-19T04:58:12.758Z,97.24
2019-01-19T04:59:12.934Z,97.05
2019-01-19T05:00:13.106Z,97.05
2019-01-19T05:01:13.271Z,97.24
2019-01-19T05:02:13.442Z,97.15
2019-01-19T05:03:13.611Z,96.86
2019-01-19T05:04:13.774Z,97.05
2019-01-19T05:05:13.942Z,96.49
2019-01-19T05:06:14.106Z,96.58
2019-01-19T05:07:14.266Z,96.30
2019-01-19T05:08:14.439Z,96.01
2019-01-19T05:09:14.605Z,95.54
2019-01-19T05:10:14.772Z,95.73
2019-01-19T05:11:14.938Z,95.78
2019-01-19T05:12:15.109Z,95.59
2019-01-19T05:13:15.276Z,96.44
2019-01-19T05:14:15.448Z,95.97
2019-01-19T05:15:15.616Z,95.68
2019-01-19T05:16:15.782Z,96.34
2019-01-19T05:17:15.952Z,96.63
2019-01-19T05:18:16.118Z,96.91
2019-01-19T05:19:16.284Z,96.44
2019-01-19T05:20:16.468Z,96.63
2019-01-19T05:21:16.617Z,96.34
2019-01-19T05:22:16.773Z,97.10
2019-01-19T05:23:16.933Z,97.38
2019-01-19T05:24:17.103Z,97.00
2019-01-19T05:25:17.268Z,97.38
2019-01-19T05:26:17.437Z,97.29
2019-01-19T05:27:17.612Z,97.00
2019-01-19T05:28:17.772Z,96.81
2019-01-19T05:29:17.999Z,96.25
2019-01-19T05:30:18.096Z,96.53
2019-01-19T05:31:18.289Z,96.34
2019-01-19T05:32:18.446Z,95.78
2019-01-19T05:33:18.614Z,95.97
2019-01-19T05:34:18.780Z,95.59
2019-01-19T05:35:18.953Z,96.06
2019-01-19T05:36:19.123Z,95.87
2019-01-19T05:37:19.285Z,95.59
2019-01-19T05:38:19.451Z,95.59
2019-01-19T05:39:19.618Z,95.97
2019-01-19T05:40:19.784Z,95.59
2019-01-19T05:41:19.948Z,95.50
2019-01-19T05:42:20.113Z,95.50
2019-01-19T05:43:20.280Z,95.59
2019-01-19T05:44:20.457Z,95.87
2019-01-19T05:45:20.632Z,95.78
2019-01-19T05:46:21.500Z,95.78
2019-01-19T05:47:20.950Z,96.06
2019-01-19T05:48:21.126Z,95.78
2019-01-19T05:49:21.287Z,95.50
2019-01-19T05:50:21.457Z,95.21
2019-01-19T05:51:21.624Z,95.31
2019-01-19T05:52:21.793Z,94.55
2019-01-19T05:53:21.954Z,94.65
2019-01-19T05:54:22.126Z,94.65
2019-01-19T05:55:22.296Z,94.36
2019-01-19T05:56:22.464Z,94.74
2019-01-19T05:57:22.631Z,95.40
2019-01-19T05:58:22.800Z,95.31
2019-01-19T05:59:22.964Z,95.54
2019-01-19T06:00:23.167Z,95.78
2019-01-19T06:01:23.301Z,96.53
2019-01-19T06:02:23.474Z,96.39
2019-01-19T06:03:23.646Z,96.39
2019-01-19T06:04:23.816Z,96.15
2019-01-19T06:05:23.988Z,96.81
2019-01-19T06:06:24.150Z,96.81
2019-01-19T06:07:24.322Z,96.25
2019-01-19T06:08:24.492Z,96.44
2019-01-19T06:09:24.659Z,96.25
2019-01-19T06:10:24.832Z,95.78
2019-01-19T06:11:25.013Z,96.06
2019-01-19T06:12:25.158Z,95.97
2019-01-19T06:13:25.338Z,95.97
2019-01-19T06:14:25.495Z,96.34
2019-01-19T06:15:25.675Z,95.31
2019-01-19T06:16:25.827Z,95.50
2019-01-19T06:17:25.994Z,95.21
2019-01-19T06:18:26.162Z,95.21
2019-01-19T06:19:26.350Z,96.15
2019-01-19T06:20:26.495Z,95.87
2019-01-19T06:21:26.657Z,96.25
2019-01-19T06:22:26.825Z,95.87
2019-01-19T06:23:26.991Z,95.97
2019-01-19T06:24:27.155Z,95.31
2019-01-19T06:25:27.326Z,95.03
2019-01-19T06:26:27.497Z,95.21
2019-01-19T06:27:27.661Z,95.21
2019-01-19T06:28:27.826Z,95.12
2019-01-19T06:29:27.996Z,95.50
2019-01-19T06:30:28.163Z,95.97
2019-01-19T06:31:28.328Z,96.15
2019-01-19T06:32:28.500Z,96.44
2019-01-19T06:33:28.662Z,96.44
2019-01-19T06:34:28.829Z,96.44
2019-01-19T06:35:28.997Z,96.53
2019-01-19T06:36:29.169Z,96.91
2019-01-19T06:37:29.334Z,96.63
2019-01-19T06:38:29.501Z,96.91
2019-01-19T06:39:29.666Z,96.81
2019-01-19T06:40:29.833Z,96.81
2019-01-19T06:41:29.999Z,96.72
2019-01-19T06:42:30.165Z,96.53
2019-01-19T06:43:30.330Z,96.53
2019-01-19T06:44:30.496Z,96.44
2019-01-19T06:45:30.679Z,96.25
2019-01-19T06:46:30.842Z,97.10
2019-01-19T06:47:31.003Z,97.10
2019-01-19T06:48:31.169Z,97.19
2019-01-19T06:49:31.343Z,97.10
2019-01-19T06:50:31.512Z,97.10
2019-01-19T06:51:31.684Z,96.81
2019-01-19T06:52:31.848Z,96.81
2019-01-19T06:53:32.021Z,97.10
2019-01-19T06:54:32.183Z,96.44
2019-01-19T06:55:32.352Z,96.44
2019-01-19T06:56:32.533Z,95.68
2019-01-19T06:57:32.693Z,95.87
2019-01-19T06:58:32.852Z,96.34
2019-01-19T06:59:33.029Z,96.44
2019-01-19T07:00:33.182Z,96.63
2019-01-19T07:01:33.350Z,96.44
2019-01-19T07:02:33.517Z,96.25
2019-01-19T07:03:33.686Z,97.10
2019-01-19T07:04:33.852Z,96.91
2019-01-19T07:05:34.024Z,97.10
2019-01-19T07:06:34.183Z,97.76
2019-01-19T07:07:34.356Z,98.04
2019-01-19T07:08:34.522Z,97.85
2019-01-19T07:09:34.690Z,98.42
2019-01-19T07:10:34.859Z,98.23
2019-01-19T07:11:35.025Z,98.71
2019-01-19T07:12:35.193Z,98.80
2019-01-19T07:13:35.364Z,98.52
2019-01-19T07:14:35.524Z,98.04
2019-01-19T07:15:35.692Z,97.85
2019-01-19T07:16:35.862Z,97.85
2019-01-19T07:17:36.044Z,97.76
2019-01-19T07:18:36.197Z,97.38
2019-01-19T07:19:36.370Z,97.48
2019-01-19T07:20:36.539Z,97.61
2019-01-19T07:21:36.696Z,97.67
2019-01-19T07:22:36.883Z,97.80
2019-01-19T07:24:37.204Z,98.23
2019-01-19T07:25:37.382Z,98.37
2019-01-19T07:26:37.535Z,98.52
2019-01-19T07:27:37.713Z,98.04
2019-01-19T07:28:37.882Z,97.95
2019-01-19T07:29:38.055Z,98.23
2019-01-19T07:30:38.222Z,98.23
2019-01-19T07:31:38.395Z,97.95
2019-01-19T07:32:38.547Z,98.71
2019-01-19T07:33:38.712Z,98.90
2019-01-19T07:34:38.889Z,98.52
2019-01-19T07:35:39.045Z,99.46
2019-01-19T07:36:39.210Z,99.37
2019-01-19T07:37:39.374Z,99.27
2019-01-19T07:38:39.546Z,99.27
2019-01-19T07:39:39.710Z,99.08
2019-01-19T07:40:39.879Z,98.99
2019-01-19T07:41:40.037Z,98.99
2019-01-19T07:42:40.204Z,98.90
2019-01-19T07:43:40.362Z,98.80
2019-01-19T07:44:40.530Z,98.80
2019-01-19T07:45:40.696Z,98.42
2019-01-19T07:46:40.874Z,98.80
2019-01-19T07:47:41.024Z,98.23
2019-01-19T07:48:41.191Z,98.14
2019-01-19T07:49:41.357Z,97.95
2019-01-19T07:50:41.526Z,97.85
2019-01-19T07:51:41.694Z,98.04
2019-01-19T07:52:41.863Z,97.76
2019-01-19T07:53:42.029Z,97.67
2019-01-19T07:54:42.203Z,97.85
2019-01-19T07:55:42.361Z,98.52
2019-01-19T07:56:42.531Z,98.52
2019-01-19T07:57:42.691Z,98.52
2019-01-19T07:58:42.872Z,98.52
2019-01-19T07:59:43.033Z,98.71
2019-01-19T08:00:43.207Z,98.42
2019-01-19T08:01:43.379Z,98.52
2019-01-19T08:02:43.541Z,98.52
2019-01-19T08:03:43.723Z,98.23
2019-01-19T08:04:43.897Z,98.52
2019-01-19T08:05:44.058Z,99.46
2019-01-19T08:06:44.225Z,99.18
2019-01-19T08:07:44.403Z,99.55
2019-01-19T08:08:44.556Z,98.90
2019-01-19T08:09:44.724Z,98.23
2019-01-19T08:10:44.904Z,97.76
2019-01-19T08:11:45.061Z,97.76
2019-01-19T08:12:45.226Z,98.14
2019-01-19T08:13:45.398Z,98.14
2019-01-19T08:14:45.565Z,97.85
2019-01-19T08:15:45.727Z,97.95
2019-01-19T08:16:45.899Z,98.04
2019-01-19T08:17:46.217Z,97.10
2019-01-19T08:18:46.225Z,97.38
2019-01-19T08:19:46.462Z,97.10
2019-01-19T08:20:46.503Z,97.10
2019-01-19T08:21:46.678Z,97.10
2019-01-19T08:22:46.841Z,97.10
2019-01-19T08:23:47.002Z,96.91
2019-01-19T08:24:47.170Z,96.72
2019-01-19T08:25:47.340Z,96.53
2019-01-19T08:26:47.508Z,96.34
2019-01-19T08:27:47.680Z,96.20
2019-01-19T08:28:47.845Z,96.44
2019-01-19T08:29:48.021Z,95.92
2019-01-19T08:30:48.166Z,96.11
2019-01-19T08:31:48.341Z,95.26
2019-01-19T08:32:48.516Z,94.98
2019-01-19T08:33:48.699Z,94.27
2019-01-19T08:34:48.860Z,94.93
2019-01-19T08:35:49.025Z,95.31
2019-01-19T08:36:49.186Z,95.40
2019-01-19T08:37:49.379Z,95.12
2019-01-19T08:38:49.526Z,95.31
2019-01-19T08:39:49.698Z,96.06
2019-01-19T08:40:49.856Z,95.59
2019-01-19T08:41:50.032Z,95.97
2019-01-19T08:42:50.192Z,95.97
2019-01-19T08:43:50.362Z,95.73
2019-01-19T08:44:50.525Z,95.31
2019-01-19T08:45:50.689Z,95.59
2019-01-19T08:46:50.857Z,95.45
2019-01-19T08:47:51.031Z,95.54
2019-01-19T08:48:51.195Z,95.64
2019-01-19T08:49:51.361Z,95.54
2019-01-19T08:50:51.541Z,95.92
2019-01-19T08:51:51.713Z,95.64
2019-01-19T08:52:51.861Z,95.54
2019-01-19T08:53:52.031Z,95.64
2019-01-19T08:54:52.193Z,96.11
2019-01-19T08:55:52.357Z,96.20
2019-01-19T08:56:52.531Z,96.01
2019-01-19T08:57:52.696Z,96.15
2019-01-19T08:58:52.870Z,96.34
2019-01-19T08:59:53.034Z,96.44
2019-01-19T09:00:53.205Z,96.49
2019-01-19T09:01:53.378Z,96.63
2019-01-19T09:02:53.539Z,96.49
2019-01-19T09:03:53.718Z,96.06
2019-01-19T09:04:53.880Z,96.58
2019-01-19T09:05:54.040Z,96.68
2019-01-19T09:06:54.205Z,96.49
2019-01-19T09:07:54.409Z,95.92
2019-01-19T09:08:54.581Z,95.92
2019-01-19T09:09:54.756Z,95.36
2019-01-19T09:10:54.919Z,95.45
2019-01-19T09:11:55.090Z,95.64
2019-01-19T09:12:55.274Z,95.17
2019-01-19T09:13:55.433Z,94.79
2019-01-19T09:14:55.602Z,94.60
2019-01-19T09:15:55.771Z,94.70
2019-01-19T09:16:55.943Z,94.79
2019-01-19T09:17:56.124Z,94.60
2019-01-19T09:18:56.293Z,94.79
2019-01-19T09:19:56.444Z,94.98
2019-01-19T09:20:56.635Z,94.60
2019-01-19T09:21:56.794Z,94.70
2019-01-19T09:22:56.995Z,94.70
2019-01-19T09:23:58.101Z,95.26
2019-01-19T09:24:57.326Z,95.54
2019-01-19T09:25:57.491Z,95.54
2019-01-19T09:26:57.657Z,96.39
2019-01-19T09:27:57.825Z,96.53
2019-01-19T09:28:57.993Z,96.34
2019-01-19T09:29:58.161Z,96.25
2019-01-19T09:30:58.329Z,97.05
2019-01-19T09:31:58.515Z,96.96
2019-01-19T09:32:58.679Z,97.05
2019-01-19T09:33:58.843Z,97.05
2019-01-19T09:34:59.010Z,96.30
2019-01-19T09:35:59.174Z,96.86
2019-01-19T09:36:59.335Z,96.30
2019-01-19T09:37:59.502Z,95.64
2019-01-19T09:38:59.672Z,95.83
2019-01-19T09:39:59.842Z,96.01
2019-01-19T09:41:00.001Z,95.54
2019-01-19T09:42:00.193Z,95.64
2019-01-19T09:43:00.356Z,95.64
2019-01-19T09:44:00.542Z,94.22
2019-01-19T09:45:00.701Z,94.13
2019-01-19T09:46:00.885Z,93.84
2019-01-19T09:47:01.052Z,93.84
2019-01-19T09:48:01.234Z,93.28
2019-01-19T09:49:01.417Z,92.99
2019-01-19T09:50:01.553Z,93.23
2019-01-19T09:51:01.728Z,92.94
2019-01-19T09:52:01.900Z,93.04
2019-01-19T09:53:02.097Z,92.47
2019-01-19T09:54:02.227Z,91.82
2019-01-19T09:55:02.398Z,91.63
2019-01-19T09:56:02.567Z,91.25
2019-01-19T09:57:02.733Z,91.53
2019-01-19T09:58:02.900Z,91.25
2019-01-19T09:59:03.069Z,91.34
2019-01-19T10:00:03.239Z,91.25
2019-01-19T10:01:03.421Z,90.68
2019-01-19T10:02:03.582Z,90.87
2019-01-19T10:03:03.748Z,91.63
2019-01-19T10:04:03.915Z,91.34
2019-01-19T10:05:04.094Z,91.25
2019-01-19T10:06:04.253Z,90.82
2019-01-19T10:07:05.168Z,90.35
2019-01-19T10:08:04.573Z,89.69
2019-01-19T10:09:05.692Z,89.31
2019-01-19T10:10:04.906Z,88.84
2019-01-19T10:11:05.081Z,88.74
2019-01-19T10:12:05.238Z,88.46
2019-01-19T10:13:05.419Z,88.55
2019-01-19T10:14:05.585Z,89.50
2019-01-19T10:15:05.752Z,88.74
2019-01-19T10:16:05.924Z,89.31
2019-01-19T10:17:06.086Z,89.87
2019-01-19T10:18:06.271Z,89.22
2019-01-19T10:19:06.429Z,88.27
2019-01-19T10:20:06.596Z,88.36
2019-01-19T10:21:06.764Z,87.98
2019-01-19T10:22:06.933Z,87.32
2019-01-19T10:23:07.102Z,87.23
2019-01-19T10:24:07.270Z,87.42
2019-01-19T10:25:07.454Z,86.94
2019-01-19T10:26:07.617Z,86.66
2019-01-19T10:27:07.782Z,87.70
2019-01-19T10:28:07.987Z,86.99
2019-01-19T10:29:08.117Z,87.13
2019-01-19T10:30:08.295Z,87.61
2019-01-19T10:31:08.457Z,86.90
2019-01-19T10:32:08.632Z,86.38
2019-01-19T10:33:08.800Z,86.80
2019-01-19T10:34:08.975Z,86.80
2019-01-19T10:35:09.137Z,87.18
2019-01-19T10:36:09.307Z,86.42
2019-01-19T10:37:09.483Z,86.23
2019-01-19T10:38:09.651Z,85.76
2019-01-19T10:39:09.815Z,86.52
2019-01-19T10:40:09.984Z,85.57
2019-01-19T10:41:10.166Z,85.71
2019-01-19T10:42:10.323Z,85.42
2019-01-19T10:43:10.501Z,84.48
2019-01-19T10:44:10.662Z,83.44
2019-01-19T10:45:10.827Z,82.87
2019-01-19T10:46:10.994Z,82.50
2019-01-19T10:47:11.159Z,81.30
2019-01-19T10:48:11.329Z,81.40
2019-01-19T10:49:11.518Z,80.74
2019-01-19T10:50:11.684Z,79.85
2019-01-19T10:51:11.837Z,80.79
2019-01-19T10:52:12.017Z,81.26
2019-01-19T10:53:13.358Z,81.93
2019-01-19T10:54:12.346Z,82.12
2019-01-19T10:55:12.518Z,82.68
2019-01-19T10:56:12.698Z,82.40
2019-01-19T10:57:12.872Z,81.74
2019-01-19T10:58:13.040Z,81.17
2019-01-19T10:59:13.187Z,82.40
2019-01-19T11:00:13.371Z,82.02
2019-01-19T11:01:13.525Z,82.50
2019-01-19T11:02:13.699Z,82.59
2019-01-19T11:03:13.870Z,82.68
2019-01-19T11:04:14.051Z,82.44
2019-01-19T11:05:14.230Z,81.30
2019-01-19T11:06:14.393Z,80.36
2019-01-19T11:07:14.565Z,80.17
2019-01-19T11:08:14.736Z,79.88
2019-01-19T11:09:14.906Z,79.88
2019-01-19T11:10:15.079Z,80.22
2019-01-19T11:11:15.259Z,80.60
2019-01-19T11:12:15.420Z,80.64
2019-01-19T11:13:15.588Z,80.64
2019-01-19T11:14:15.756Z,81.02
2019-01-19T11:15:15.936Z,80.55
2019-01-19T11:16:16.101Z,79.98
2019-01-19T11:17:16.287Z,79.32
2019-01-19T11:18:16.456Z,78.75
2019-01-19T11:19:16.624Z,79.32
2019-01-19T11:20:16.798Z,79.74
2019-01-19T11:21:16.975Z,78.59
2019-01-19T11:22:17.465Z,77.78
2019-01-19T11:23:17.307Z,76.17
2019-01-19T11:24:17.471Z,75.32
2019-01-19T11:25:17.651Z,74.85
2019-01-19T11:26:17.834Z,74.85
2019-01-19T11:27:17.990Z,74.09
2019-01-19T11:28:18.163Z,74.28
2019-01-19T11:29:18.349Z,74.18
2019-01-19T11:30:18.520Z,73.99
2019-01-19T11:31:18.671Z,74.18
2019-01-19T11:32:18.838Z,73.52
2019-01-19T11:33:19.012Z,72.71
2019-01-19T11:34:19.196Z,72.80
2019-01-19T11:35:19.358Z,72.86
2019-01-19T11:36:19.515Z,72.89
2019-01-19T11:37:19.696Z,72.61
2019-01-19T11:38:20.330Z,72.14
2019-01-19T11:39:20.042Z,71.28
2019-01-19T11:40:20.226Z,71.57
2019-01-19T11:41:20.395Z,70.90
2019-01-19T11:42:20.591Z,70.28
2019-01-19T11:43:20.781Z,70.09
2019-01-19T11:44:21.000Z,70.15
2019-01-19T11:45:21.230Z,71.09
2019-01-19T11:46:21.354Z,71.47
2019-01-19T11:47:21.572Z,71.76
2019-01-19T11:48:21.690Z,71.28
2019-01-19T11:49:21.872Z,70.90
2019-01-19T11:50:22.842Z,71.60
2019-01-19T11:51:22.224Z,71.00
2019-01-19T11:52:22.395Z,71.57
2019-01-19T11:53:22.560Z,71.47
2019-01-19T11:54:22.731Z,71.28
2019-01-19T11:55:22.906Z,71.85
2019-01-19T11:56:23.084Z,71.57
2019-01-19T11:57:23.254Z,71.51
2019-01-19T11:58:23.428Z,70.69
2019-01-19T11:59:23.599Z,69.46
2019-01-19T12:00:23.779Z,68.26
2019-01-19T12:01:23.946Z,67.59
2019-01-19T12:02:24.120Z,67.31
2019-01-19T12:03:24.296Z,66.64
2019-01-19T12:04:24.465Z,65.82
2019-01-19T12:05:24.647Z,65.44
2019-01-19T12:06:24.817Z,64.56
2019-01-19T12:07:25.000Z,65.19
2019-01-19T12:08:25.169Z,65.47
2019-01-19T12:09:25.338Z,66.46
2019-01-19T12:10:25.525Z,65.88
2019-01-19T12:11:25.687Z,65.88
2019-01-19T12:12:25.865Z,65.88
2019-01-19T12:13:26.039Z,63.70
2019-01-19T12:14:26.245Z,62.97
2019-01-19T12:15:26.397Z,62.31
2019-01-19T12:16:26.570Z,62.97
2019-01-19T12:17:26.749Z,61.77
2019-01-19T12:18:26.928Z,61.33
2019-01-19T12:19:27.095Z,61.45
2019-01-19T12:20:27.277Z,61.90
2019-01-19T12:21:27.447Z,62.72
2019-01-19T12:22:27.628Z,63.76
2019-01-19T12:23:27.806Z,64.71
2019-01-19T12:24:27.983Z,65.28
2019-01-19T12:25:28.159Z,65.82
2019-01-19T12:26:28.335Z,66.10
2019-01-19T12:27:28.525Z,65.95
2019-01-19T12:28:28.686Z,65.66
2019-01-19T12:29:28.871Z,65.16
2019-01-19T12:30:29.038Z,65.12
2019-01-19T12:31:29.219Z,62.81
2019-01-19T12:32:29.391Z,61.39
2019-01-19T12:33:29.567Z,59.80
2019-01-19T12:34:29.742Z,58.57
2019-01-19T12:35:29.922Z,57.71
2019-01-19T12:36:30.100Z,57.52
2019-01-19T12:37:30.281Z,58.03
2019-01-19T12:38:30.459Z,56.70
2019-01-19T12:39:30.628Z,56.12
2019-01-19T12:40:30.806Z,56.15
2019-01-19T12:41:30.981Z,55.68
2019-01-19T12:42:31.163Z,55.55
2019-01-19T12:43:31.322Z,55.90
2019-01-19T12:44:31.521Z,56.41
2019-01-19T12:45:31.695Z,55.93
2019-01-19T12:46:31.873Z,55.49
2019-01-19T12:47:32.052Z,54.66
2019-01-19T12:48:32.236Z,53.39
2019-01-19T12:49:32.410Z,53.61
2019-01-19T12:50:32.589Z,53.67
2019-01-19T12:51:32.784Z,53.77
2019-01-19T12:52:32.953Z,53.08
2019-01-19T12:53:33.125Z,53.01
2019-01-19T12:54:33.311Z,52.44
2019-01-19T12:55:33.478Z,52.72
2019-01-19T12:56:33.658Z,52.98
2019-01-19T12:57:33.832Z,52.98